createdAt,value
2023-01-29T00:00:45.809Z,44.10
2023-01-29T00:03:34.281Z,44.20
2023-01-29T00:06:23.664Z,44.00
2023-01-29T00:09:12.941Z,44.00
2023-01-29T00:12:01.189Z,44.00
2023-01-29T00:14:51.003Z,44.00
2023-01-29T00:17:39.336Z,43.80
2023-01-29T00:20:27.699Z,43.80
2023-01-29T00:23:16.538Z,43.90
2023-01-29T00:26:04.898Z,43.90
2023-01-29T00:28:53.274Z,43.90
2023-01-29T00:31:46.140Z,43.90
2023-01-29T00:34:34.616Z,43.90
2023-01-29T00:37:22.867Z,43.80
2023-01-29T00:40:12.162Z,43.80
2023-01-29T00:43:17.656Z,43.70
2023-01-29T00:46:07.656Z,43.70
2023-01-29T00:48:57.629Z,43.70
2023-01-29T00:52:07.608Z,43.70
2023-01-29T00:54:57.814Z,43.70
2023-01-29T00:57:46.099Z,43.70
2023-01-29T01:00:34.572Z,43.70
2023-01-29T01:03:22.077Z,43.70
2023-01-29T01:06:12.442Z,43.70
2023-01-29T01:09:18.169Z,43.60
2023-01-29T01:12:06.965Z,43.60
2023-01-29T01:14:55.350Z,43.60
2023-01-29T01:17:43.700Z,43.60
2023-01-29T01:20:34.667Z,43.60
2023-01-29T01:23:24.393Z,43.50
2023-01-29T01:26:12.720Z,43.60
2023-01-29T01:29:01.026Z,43.50
2023-01-29T01:31:49.457Z,43.60
2023-01-29T01:34:37.925Z,43.50
2023-01-29T01:37:26.252Z,43.50
2023-01-29T01:40:19.235Z,43.50
2023-01-29T01:43:07.628Z,43.50
2023-01-29T01:45:56.030Z,43.50
2023-01-29T01:48:45.990Z,43.50
2023-01-29T01:51:38.161Z,43.40
2023-01-29T01:54:30.053Z,43.40
2023-01-29T01:57:25.208Z,43.40
2023-01-29T02:00:17.539Z,43.50
2023-01-29T02:03:24.898Z,43.40
2023-01-29T02:06:30.941Z,43.40
2023-01-29T02:09:33.948Z,43.40
2023-01-29T02:12:24.277Z,43.40
2023-01-29T02:15:12.978Z,43.40
2023-01-29T02:18:01.909Z,43.40
2023-01-29T02:21:02.538Z,43.30
2023-01-29T02:24:16.351Z,43.30
2023-01-29T02:27:11.899Z,43.30
2023-01-29T02:30:07.961Z,43.30
2023-01-29T02:33:07.704Z,43.30
2023-01-29T02:36:02.024Z,43.30
2023-01-29T02:38:57.317Z,43.30
2023-01-29T02:41:55.313Z,43.30
2023-01-29T02:44:49.247Z,43.30
2023-01-29T02:47:43.976Z,43.40
2023-01-29T02:50:35.861Z,43.20
2023-01-29T02:53:28.669Z,43.20
2023-01-29T02:56:20.983Z,43.20
2023-01-29T02:59:13.447Z,43.20
2023-01-29T03:02:07.663Z,43.20
2023-01-29T03:05:04.224Z,43.20
2023-01-29T03:07:58.719Z,43.30
2023-01-29T03:10:52.917Z,43.20
2023-01-29T03:13:46.485Z,43.20
2023-01-29T03:16:37.827Z,43.10
2023-01-29T03:19:34.552Z,43.20
2023-01-29T03:22:24.799Z,43.10
2023-01-29T03:25:33.466Z,43.10
2023-01-29T03:28:41.590Z,43.10
2023-01-29T03:31:50.158Z,43.10
2023-01-29T03:34:43.717Z,43.10
2023-01-29T03:37:37.637Z,43.20
2023-01-29T03:40:26.699Z,43.10
2023-01-29T03:43:25.083Z,43.10
2023-01-29T03:46:21.283Z,43.10
2023-01-29T03:49:19.709Z,43.10
2023-01-29T03:52:17.406Z,43.20
2023-01-29T03:55:15.016Z,43.10
2023-01-29T03:58:10.396Z,43.10
2023-01-29T04:01:03.073Z,43.10
2023-01-29T04:03:57.949Z,43.00
2023-01-29T04:06:49.186Z,43.00
2023-01-29T04:09:41.798Z,43.00
2023-01-29T04:12:37.234Z,43.00
2023-01-29T04:15:30.083Z,43.00
2023-01-29T04:18:18.364Z,42.90
2023-01-29T04:21:08.283Z,42.90
2023-01-29T04:23:56.660Z,42.90
2023-01-29T04:26:59.052Z,42.90
2023-01-29T04:29:58.991Z,43.00
2023-01-29T04:33:01.406Z,43.00
2023-01-29T04:36:07.246Z,43.00
2023-01-29T04:39:06.376Z,43.00
2023-01-29T04:42:00.377Z,43.10
2023-01-29T04:44:55.647Z,43.10
2023-01-29T04:47:52.986Z,43.10
2023-01-29T04:50:48.103Z,43.10
2023-01-29T04:53:42.823Z,43.10
2023-01-29T04:56:36.610Z,43.10
2023-01-29T04:59:31.882Z,43.10
2023-01-29T05:02:24.261Z,43.20
2023-01-29T05:05:15.141Z,43.20
2023-01-29T05:08:05.464Z,43.20
2023-01-29T05:10:55.813Z,43.20
2023-01-29T05:13:44.449Z,43.20
2023-01-29T05:16:42.947Z,43.20
2023-01-29T05:19:32.672Z,43.20
2023-01-29T05:22:22.846Z,43.20
2023-01-29T05:25:23.583Z,43.20
2023-01-29T05:28:16.443Z,43.20
2023-01-29T05:31:04.826Z,43.30
2023-01-29T05:33:53.257Z,43.20
2023-01-29T05:36:42.993Z,43.20
2023-01-29T05:39:31.245Z,43.20
2023-01-29T05:42:19.518Z,43.20
2023-01-29T05:45:09.452Z,43.20
2023-01-29T05:47:58.303Z,43.20
2023-01-29T05:50:46.632Z,43.20
2023-01-29T05:53:36.176Z,43.20
2023-01-29T05:56:25.420Z,43.20
2023-01-29T05:59:13.666Z,43.20
2023-01-29T06:02:02.073Z,43.20
2023-01-29T06:04:52.590Z,43.20
2023-01-29T06:07:45.314Z,43.20
2023-01-29T06:10:35.175Z,43.20
2023-01-29T06:13:23.788Z,43.30
2023-01-29T06:16:14.398Z,43.30
2023-01-29T06:19:02.698Z,43.30
2023-01-29T06:21:50.927Z,43.30
2023-01-29T06:24:39.223Z,43.30
2023-01-29T06:27:28.834Z,43.30
2023-01-29T06:30:17.782Z,43.30
2023-01-29T06:33:06.174Z,43.30
2023-01-29T06:35:58.764Z,43.30
2023-01-29T06:38:47.308Z,43.40
2023-01-29T06:41:36.066Z,43.20
2023-01-29T06:44:25.863Z,43.20
2023-01-29T06:47:14.880Z,43.20
2023-01-29T06:50:04.054Z,43.30
2023-01-29T06:52:52.342Z,43.30
2023-01-29T06:55:40.957Z,45.20
2023-01-29T06:58:29.319Z,45.10
2023-01-29T07:01:34.622Z,44.80
2023-01-29T07:04:23.662Z,44.70
2023-01-29T07:07:13.436Z,44.60
2023-01-29T07:10:01.808Z,44.50
2023-01-29T07:12:50.043Z,44.40
2023-01-29T07:15:38.281Z,44.30
2023-01-29T07:18:28.244Z,44.30
2023-01-29T07:21:16.506Z,44.30
2023-01-29T07:24:05.134Z,44.20
2023-01-29T07:26:53.900Z,44.20
2023-01-29T07:29:42.060Z,44.20
2023-01-29T07:32:30.434Z,44.20
2023-01-29T07:35:20.214Z,44.10
2023-01-29T07:38:08.883Z,44.10
2023-01-29T07:40:57.076Z,44.10
2023-01-29T07:43:45.507Z,44.10
2023-01-29T07:46:33.741Z,44.00
2023-01-29T07:49:22.003Z,44.00
2023-01-29T07:52:11.718Z,44.00
2023-01-29T07:55:00.145Z,44.00
2023-01-29T07:57:48.492Z,44.00
2023-01-29T08:00:36.833Z,44.00
2023-01-29T08:03:25.237Z,44.00
2023-01-29T08:06:13.587Z,43.90
2023-01-29T08:09:03.863Z,44.00
2023-01-29T08:11:52.162Z,44.00
2023-01-29T08:14:40.460Z,44.00
2023-01-29T08:17:28.918Z,44.00
2023-01-29T08:20:17.710Z,44.00
2023-01-29T08:23:07.943Z,44.00
2023-01-29T08:25:57.654Z,46.30
2023-01-29T08:28:46.177Z,47.00
2023-01-29T08:31:35.219Z,46.80
2023-01-29T08:34:23.745Z,46.50
2023-01-29T08:37:12.028Z,46.20
2023-01-29T08:40:00.441Z,46.10
2023-01-29T08:42:50.461Z,45.90
2023-01-29T08:45:42.044Z,45.80
2023-01-29T08:48:30.491Z,45.70
2023-01-29T08:51:18.820Z,45.60
2023-01-29T08:54:07.204Z,45.50
2023-01-29T08:56:55.497Z,45.40
2023-01-29T08:59:45.173Z,45.30
2023-01-29T09:02:33.520Z,45.30
2023-01-29T09:05:21.989Z,46.60
2023-01-29T09:08:11.250Z,46.30
2023-01-29T09:11:00.725Z,46.20
2023-01-29T09:13:49.158Z,46.80
2023-01-29T09:16:38.947Z,47.70
2023-01-29T09:19:27.315Z,47.30
2023-01-29T09:22:15.609Z,51.90
2023-01-29T09:25:04.315Z,53.20
2023-01-29T09:27:52.625Z,53.20
2023-01-29T09:30:41.087Z,51.80
2023-01-29T09:33:31.034Z,51.20
2023-01-29T09:36:19.610Z,50.80
2023-01-29T09:39:08.017Z,50.10
2023-01-29T09:42:04.867Z,50.30
2023-01-29T09:45:01.001Z,49.90
2023-01-29T09:47:49.858Z,49.60
2023-01-29T09:50:42.829Z,49.30
2023-01-29T09:53:37.824Z,49.00
2023-01-29T09:56:29.086Z,48.70
2023-01-29T09:59:24.958Z,48.50
2023-01-29T10:02:34.352Z,48.30
2023-01-29T10:05:41.153Z,48.10
2023-01-29T10:08:48.671Z,47.80
2023-01-29T10:11:46.504Z,51.40
2023-01-29T10:14:39.167Z,51.10
2023-01-29T10:17:41.627Z,50.90
2023-01-29T10:20:44.450Z,50.30
2023-01-29T10:29:47.640Z,49.30
2023-01-29T10:32:38.086Z,51.10
2023-01-29T10:35:30.951Z,53.00
2023-01-29T10:38:30.888Z,52.30
2023-01-29T10:41:28.418Z,52.00
2023-01-29T10:44:26.462Z,51.80
2023-01-29T10:47:59.804Z,51.30
2023-01-29T10:50:51.918Z,50.90
2023-01-29T10:53:49.812Z,50.50
2023-01-29T10:56:55.887Z,50.20
2023-01-29T10:59:59.635Z,49.70
2023-01-29T11:02:50.438Z,49.30
2023-01-29T11:05:52.862Z,49.00
2023-01-29T11:08:47.212Z,48.50
2023-01-29T11:11:40.645Z,48.40
2023-01-29T11:14:34.543Z,48.00
2023-01-29T11:17:24.980Z,47.90
2023-01-29T11:20:28.714Z,47.70
2023-01-29T11:23:28.359Z,47.40
2023-01-29T11:26:22.404Z,46.90
2023-01-29T11:29:30.799Z,46.90
2023-01-29T11:32:27.619Z,46.80
2023-01-29T11:35:24.096Z,46.70
2023-01-29T11:38:22.420Z,46.60
2023-01-29T11:41:22.303Z,46.50
2023-01-29T11:44:19.991Z,46.40
2023-01-29T11:47:20.200Z,46.30
2023-01-29T11:50:21.270Z,46.10
2023-01-29T11:53:24.917Z,45.80
2023-01-29T11:56:36.854Z,45.60
2023-01-29T11:59:38.899Z,45.40
2023-01-29T12:02:31.832Z,45.40
2023-01-29T12:05:23.541Z,45.40
2023-01-29T12:08:18.216Z,45.50
2023-01-29T12:11:11.867Z,45.30
2023-01-29T12:14:02.820Z,45.10
2023-01-29T12:16:56.197Z,44.90
2023-01-29T12:19:50.033Z,44.80
2023-01-29T12:22:44.113Z,44.80
2023-01-29T12:25:42.657Z,44.70
2023-01-29T12:28:40.074Z,44.40
2023-01-29T12:31:36.328Z,44.50
2023-01-29T12:34:33.640Z,44.50
2023-01-29T12:37:26.093Z,44.50
2023-01-29T12:40:16.927Z,44.50
2023-01-29T12:43:13.748Z,44.40
2023-01-29T12:46:03.288Z,44.30
2023-01-29T12:48:55.846Z,44.20
2023-01-29T12:51:50.973Z,44.30
2023-01-29T12:54:43.479Z,44.30
2023-01-29T12:57:41.164Z,44.20
2023-01-29T13:00:33.381Z,44.20
2023-01-29T13:03:30.948Z,44.30
2023-01-29T13:06:24.730Z,44.30
2023-01-29T13:09:16.670Z,44.30
2023-01-29T13:12:10.303Z,44.30
2023-01-29T13:15:01.607Z,44.20
2023-01-29T13:17:54.216Z,44.30
2023-01-29T13:20:44.636Z,44.20
2023-01-29T13:23:38.712Z,44.20
2023-01-29T13:26:28.171Z,44.30
2023-01-29T13:29:24.264Z,44.20
2023-01-29T13:32:12.671Z,44.20
2023-01-29T13:35:03.867Z,44.20
2023-01-29T13:37:54.933Z,44.30
2023-01-29T13:40:51.165Z,44.30
2023-01-29T13:43:42.854Z,44.30
2023-01-29T13:46:33.131Z,44.30
2023-01-29T13:49:36.440Z,44.30
2023-01-29T13:52:35.504Z,44.30
2023-01-29T13:55:31.437Z,44.40
2023-01-29T13:58:54.356Z,44.30
2023-01-29T14:02:05.016Z,44.40
2023-01-29T14:04:55.250Z,44.50
2023-01-29T14:07:52.147Z,44.50
2023-01-29T14:10:40.989Z,44.50
2023-01-29T14:13:36.593Z,44.40
2023-01-29T14:16:36.206Z,44.50
2023-01-29T14:19:26.091Z,44.50
2023-01-29T14:22:21.718Z,44.50
2023-01-29T14:25:20.125Z,44.50
2023-01-29T14:28:21.441Z,44.50
2023-01-29T14:31:12.234Z,44.50
2023-01-29T14:34:05.988Z,44.60
2023-01-29T14:36:56.776Z,44.60
2023-01-29T14:39:46.172Z,44.60
2023-01-29T14:42:38.757Z,44.60
2023-01-29T14:45:29.786Z,44.70
2023-01-29T14:48:39.057Z,44.70
2023-01-29T14:51:30.920Z,44.80
2023-01-29T14:54:26.396Z,44.80
2023-01-29T14:57:18.110Z,44.80
2023-01-29T15:00:09.660Z,44.80
2023-01-29T15:03:01.905Z,44.80
2023-01-29T15:05:54.212Z,44.90
2023-01-29T15:08:48.046Z,44.90
2023-01-29T15:11:45.528Z,44.90
2023-01-29T15:14:36.868Z,45.00
2023-01-29T15:17:30.087Z,45.00
2023-01-29T15:20:29.865Z,45.10
2023-01-29T15:23:30.628Z,45.10
2023-01-29T15:26:21.676Z,45.20
2023-01-29T15:29:24.728Z,45.20
2023-01-29T15:32:20.564Z,45.20
2023-01-29T15:35:11.186Z,45.30
2023-01-29T15:38:01.653Z,45.20
2023-01-29T15:40:56.662Z,45.30
2023-01-29T15:43:46.898Z,45.30
2023-01-29T15:46:37.491Z,45.30
2023-01-29T15:49:31.985Z,45.30
2023-01-29T15:52:23.846Z,45.30
2023-01-29T15:55:16.072Z,45.40
2023-01-29T15:58:06.178Z,45.40
2023-01-29T16:00:56.876Z,45.40
2023-01-29T16:03:46.318Z,45.40
2023-01-29T16:06:40.997Z,45.40
2023-01-29T16:09:30.722Z,45.40
2023-01-29T16:12:19.569Z,45.40
2023-01-29T16:15:21.377Z,45.40
2023-01-29T16:18:24.056Z,45.50
2023-01-29T16:21:17.186Z,45.50
2023-01-29T16:24:11.921Z,45.50
2023-01-29T16:27:02.302Z,45.50
2023-01-29T16:29:50.697Z,45.50
2023-01-29T16:32:40.547Z,45.60
2023-01-29T16:35:29.009Z,45.60
2023-01-29T16:38:27.940Z,45.60
2023-01-29T16:41:31.007Z,45.50
2023-01-29T16:44:33.835Z,45.60
2023-01-29T16:47:32.394Z,45.60
2023-01-29T16:50:40.728Z,45.60
2023-01-29T16:53:37.147Z,45.60
2023-01-29T16:56:27.534Z,45.60
2023-01-29T16:59:21.771Z,45.60
2023-01-29T17:02:21.454Z,45.60
2023-01-29T17:05:18.896Z,45.60
2023-01-29T17:08:09.334Z,45.60
2023-01-29T17:10:57.770Z,45.60
2023-01-29T17:13:47.192Z,45.70
2023-01-29T17:16:37.630Z,45.60
2023-01-29T17:19:26.100Z,45.60
2023-01-29T17:22:15.276Z,45.60
2023-01-29T17:25:05.410Z,45.60
2023-01-29T17:27:53.809Z,45.60
2023-01-29T17:30:44.704Z,45.60
2023-01-29T17:33:33.282Z,45.60
2023-01-29T17:36:21.466Z,45.60
2023-01-29T17:39:17.206Z,45.60
2023-01-29T17:42:07.097Z,45.70
2023-01-29T17:44:55.459Z,45.60
2023-01-29T17:47:43.775Z,45.60
2023-01-29T17:50:33.461Z,45.60
2023-01-29T17:53:23.611Z,45.60
2023-01-29T17:56:16.844Z,45.70
2023-01-29T17:59:13.850Z,45.60
2023-01-29T18:02:02.259Z,45.60
2023-01-29T18:04:51.146Z,45.60
2023-01-29T18:07:40.051Z,45.60
2023-01-29T18:10:28.579Z,45.60
2023-01-29T18:13:16.938Z,45.60
2023-01-29T18:16:07.160Z,45.70
2023-01-29T18:18:55.500Z,45.60
2023-01-29T18:21:43.871Z,45.60
2023-01-29T18:24:32.058Z,45.70
2023-01-29T18:27:20.556Z,45.60
2023-01-29T18:30:10.382Z,45.70
2023-01-29T18:33:00.376Z,45.70
2023-01-29T18:35:49.483Z,45.70
2023-01-29T18:38:37.774Z,45.70
2023-01-29T18:41:26.257Z,45.70
2023-01-29T18:44:14.632Z,45.70
2023-01-29T18:47:02.787Z,45.60
2023-01-29T18:49:52.447Z,45.60
2023-01-29T18:52:41.419Z,45.60
2023-01-29T18:55:29.684Z,45.60
2023-01-29T18:58:26.830Z,45.70
2023-01-29T19:01:23.772Z,45.60
2023-01-29T19:04:12.117Z,45.70
2023-01-29T19:07:01.799Z,45.60
2023-01-29T19:09:50.610Z,45.60
2023-01-29T19:12:40.499Z,45.60
2023-01-29T19:15:29.052Z,45.60
2023-01-29T19:18:17.367Z,45.60
2023-01-29T19:21:08.818Z,45.60
2023-01-29T19:23:58.572Z,45.60
2023-01-29T19:26:46.932Z,45.60
2023-01-29T19:29:35.496Z,45.60
2023-01-29T19:32:23.899Z,45.60
2023-01-29T19:35:12.347Z,45.60
2023-01-29T19:38:01.056Z,45.60
2023-01-29T19:40:51.029Z,45.60
2023-01-29T19:43:42.022Z,45.60
2023-01-29T19:46:30.375Z,45.60
2023-01-29T19:49:18.733Z,45.50
2023-01-29T19:52:10.828Z,45.50
2023-01-29T19:54:59.162Z,45.50
2023-01-29T19:57:48.906Z,45.50
2023-01-29T20:00:37.384Z,45.60
2023-01-29T20:03:26.077Z,45.50
2023-01-29T20:06:15.590Z,45.50
2023-01-29T20:09:05.140Z,45.50
2023-01-29T20:11:53.563Z,45.50
2023-01-29T20:14:48.774Z,45.40
2023-01-29T20:17:37.056Z,45.50
2023-01-29T20:20:31.045Z,45.30
2023-01-29T20:23:36.621Z,45.50
2023-01-29T20:26:25.687Z,45.50
2023-01-29T20:29:15.405Z,45.40
2023-01-29T20:32:05.396Z,45.30
2023-01-29T20:34:53.733Z,45.30
2023-01-29T20:37:42.034Z,45.40
2023-01-29T20:40:30.847Z,45.40
2023-01-29T20:43:19.103Z,45.40
2023-01-29T20:46:09.197Z,45.40
2023-01-29T20:48:59.024Z,45.40
2023-01-29T20:51:47.317Z,45.40
2023-01-29T20:54:35.650Z,45.50
2023-01-29T20:57:23.994Z,45.50
2023-01-29T21:00:15.543Z,45.40
2023-01-29T21:03:04.225Z,45.50
2023-01-29T21:05:54.410Z,45.40
2023-01-29T21:08:44.035Z,45.30
2023-01-29T21:11:33.507Z,45.40
2023-01-29T21:14:21.707Z,45.30
2023-01-29T21:17:10.001Z,45.40
2023-01-29T21:19:58.171Z,45.40
2023-01-29T21:22:49.165Z,45.40
2023-01-29T21:25:38.673Z,45.50
2023-01-29T21:28:26.963Z,45.40
2023-01-29T21:31:16.929Z,45.40
2023-01-29T21:34:05.654Z,45.30
2023-01-29T21:36:54.023Z,45.40
2023-01-29T21:39:44.764Z,45.40
2023-01-29T21:42:50.839Z,45.30
2023-01-29T21:45:39.479Z,45.30
2023-01-29T21:48:28.502Z,45.30
2023-01-29T21:51:18.811Z,45.40
2023-01-29T21:54:07.260Z,45.40
2023-01-29T21:56:56.854Z,45.30
2023-01-29T21:59:53.167Z,45.40
2023-01-29T22:02:42.116Z,45.40
2023-01-29T22:05:30.563Z,45.30
2023-01-29T22:08:20.587Z,45.40
2023-01-29T22:11:09.467Z,45.30
2023-01-29T22:13:59.533Z,45.40
2023-01-29T22:16:47.782Z,45.40
2023-01-29T22:19:36.093Z,45.30
2023-01-29T22:22:24.298Z,45.30
2023-01-29T22:25:13.090Z,45.30
2023-01-29T22:28:01.311Z,45.30
2023-01-29T22:30:51.053Z,45.30
2023-01-29T22:33:39.444Z,45.30
2023-01-29T22:36:27.648Z,45.30
2023-01-29T22:39:16.008Z,45.20
2023-01-29T22:42:04.398Z,45.30
2023-01-29T22:44:52.717Z,45.20
2023-01-29T22:47:42.288Z,45.20
2023-01-29T22:50:30.592Z,45.20
2023-01-29T22:53:18.823Z,45.20
2023-01-29T22:56:08.260Z,45.10
2023-01-29T22:58:57.693Z,45.10
2023-01-29T23:01:46.143Z,45.10
2023-01-29T23:04:35.831Z,45.20
2023-01-29T23:07:24.183Z,45.10
2023-01-29T23:10:14.434Z,45.10
2023-01-29T23:13:02.958Z,45.00
2023-01-29T23:15:59.830Z,45.10
2023-01-29T23:18:51.710Z,45.20
2023-01-29T23:21:41.375Z,45.00
2023-01-29T23:24:29.691Z,45.10
2023-01-29T23:27:17.335Z,45.10
2023-01-29T23:30:07.645Z,44.90
2023-01-29T23:32:56.033Z,45.00
2023-01-29T23:35:44.315Z,45.00
2023-01-29T23:38:34.269Z,45.00
2023-01-29T23:41:22.514Z,45.00
2023-01-29T23:44:10.781Z,45.00
2023-01-29T23:46:59.201Z,45.00
2023-01-29T23:49:47.622Z,45.00
2023-01-29T23:52:35.827Z,44.90
2023-01-29T23:55:25.530Z,44.80
2023-01-29T23:58:13.931Z,45.00
